Time;durP1;ratioP1;P1;durP2;ratioP2;P2;SDS_P1;SDS_P2;PMS_P1;PMS_P2;Temp;Humidity;BMP_temperature;BMP_pressure;BME280_temperature;BME280_humidity;BME280_pressure;Samples;Min_cycle;Max_cycle;Signal;HPM_P1;HPM_P2
2023/04/08 00:00:43;;;;;;;;;;;;;;;18.79;52.24;98456.28;2084422;28;21073;-54
2023/04/08 00:01:44;;;;;;;;;;;;;;;18.78;52.28;98448.44;2087489;28;19929;-55
2023/04/08 00:02:45;;;;;;;;;;;;;;;18.77;52.21;98452.97;2086280;28;19932;-56
2023/04/08 00:03:46;;;;;;;;;;;;;;;18.77;52.50;98454.84;2084672;28;19935;-53
2023/04/08 00:04:48;;;;;;;;;;;;;;;18.75;52.28;98455.06;2080430;28;19940;-54
2023/04/08 00:05:50;;;;;;;;;;;;;;;18.73;52.30;98447.19;2079671;28;20045;-51
2023/04/08 00:06:50;;;;;;;;;;;;;;;18.73;52.22;98451.72;2086720;28;19933;-52
2023/04/08 00:07:51;;;;;;;;;;;;;;;18.72;52.44;98453.59;2079650;28;19988;-54
2023/04/08 00:08:53;;;;;;;;;;;;;;;18.74;52.10;98453.41;2085083;28;19986;-56
2023/04/08 00:09:53;;;;;;;;;;;;;;;18.74;52.20;98453.41;2083159;28;20424;-56
2023/04/08 00:10:55;;;;;;;;;;;;;;;18.71;52.55;98454.63;2082851;28;19982;-54
2023/04/08 00:11:56;;;;;;;;;;;;;;;18.72;52.29;98450.06;2081505;28;20378;-53
2023/04/08 00:12:57;;;;;;;;;;;;;;;18.72;52.05;98455.44;2078235;28;19958;-55
2023/04/08 00:13:58;;;;;;;;;;;;;;;18.71;52.49;98449.25;2084003;28;19936;-57
2023/04/08 00:15:00;;;;;;;;;;;;;;;18.71;52.41;98453.78;2078167;28;19978;-51
2023/04/08 00:16:00;;;;;;;;;;;;;;;18.68;52.49;98454.22;2079236;28;20357;-55
2023/04/08 00:17:02;;;;;;;;;;;;;;;18.67;52.44;98453.41;2084631;28;19929;-52
2023/04/08 00:18:02;;;;;;;;;;;;;;;18.66;52.42;98451.72;2080406;28;21396;-54
2023/04/08 00:19:05;;;;;;;;;;;;;;;18.67;52.30;98448.03;2083454;28;19929;-58
2023/04/08 00:20:07;;;;;;;;;;;;;;;18.65;52.23;98450.09;2079139;28;19929;-57
2023/04/08 00:21:09;;;;;;;;;;;;;;;18.66;52.45;98445.53;2080977;28;19929;-57
2023/04/08 00:22:10;;;;;;;;;;;;;;;18.67;52.25;98441.81;2081260;28;19928;-51
2023/04/08 00:23:11;;;;;;;;;;;;;;;18.66;52.36;98446.34;2085310;28;19974;-56
2023/04/08 00:24:12;;;;;;;;;;;;;;;18.66;52.35;98440.16;2083342;28;19928;-56
2023/04/08 00:25:13;;;;;;;;;;;;;;;18.63;52.21;98446.78;2085856;28;19924;-56
2023/04/08 00:26:14;;;;;;;;;;;;;;;18.62;52.14;98447.81;2081614;28;19982;-52
2023/04/08 00:27:15;;;;;;;;;;;;;;;18.61;52.35;98435.44;2085476;28;19932;-55
2023/04/08 00:28:16;;;;;;;;;;;;;;;18.60;52.43;98430.25;2080944;28;19929;-54
2023/04/08 00:29:17;;;;;;;;;;;;;;;18.61;52.35;98437.25;2080585;28;19932;-56
2023/04/08 00:30:18;;;;;;;;;;;;;;;18.61;52.24;98435.44;2082522;28;19940;-57
2023/04/08 00:31:20;;;;;;;;;;;;;;;18.62;52.52;98436.25;2081137;28;19929;-58
2023/04/08 00:32:21;;;;;;;;;;;;;;;18.59;52.45;98433.97;2084513;28;20015;-56
2023/04/08 00:33:24;;;;;;;;;;;;;;;18.57;52.51;98430.66;2084696;28;19924;-53
2023/04/08 00:34:25;;;;;;;;;;;;;;;18.58;52.33;98421.56;2087152;28;19994;-56
2023/04/08 00:35:28;;;;;;;;;;;;;;;18.58;52.55;98421.56;2084092;28;20644;-55
2023/04/08 00:36:29;;;;;;;;;;;;;;;18.58;52.41;98408.13;2084923;27;19928;-58
2023/04/08 00:37:30;;;;;;;;;;;;;;;18.57;52.44;98420.75;2079991;28;19928;-55
2023/04/08 00:38:31;;;;;;;;;;;;;;;18.56;52.54;98407.53;2083371;28;19950;-55
2023/04/08 00:39:32;;;;;;;;;;;;;;;18.57;52.26;98414.56;2086656;28;19933;-53
2023/04/08 00:40:33;;;;;;;;;;;;;;;18.54;52.70;98403.19;2086265;28;20001;-49
2023/04/08 00:41:35;;;;;;;;;;;;;;;18.56;52.51;98403.00;2088317;28;19982;-52
2023/04/08 00:42:35;;;;;;;;;;;;;;;18.54;52.23;98395.13;2083078;28;19924;-56
2023/04/08 00:43:37;;;;;;;;;;;;;;;18.53;52.56;98392.66;2084696;28;20055;-52
2023/04/08 00:44:37;;;;;;;;;;;;;;;18.50;52.53;98388.53;2086991;28;19928;-56
2023/04/08 00:45:39;;;;;;;;;;;;;;;18.51;52.52;98400.09;2088800;28;19932;-54
2023/04/08 00:46:40;;;;;;;;;;;;;;;18.52;52.58;98396.38;2083967;28;19929;-59
2023/04/08 00:47:41;;;;;;;;;;;;;;;18.51;52.49;98405.47;2077723;28;20563;-55
2023/04/08 00:48:42;;;;;;;;;;;;;;;18.50;52.40;98398.47;2083287;28;19977;-55
2023/04/08 00:49:43;;;;;;;;;;;;;;;18.50;52.41;98415.41;2081834;28;20491;-51
2023/04/08 00:50:46;;;;;;;;;;;;;;;18.50;52.31;98418.09;2084744;28;19925;-55
2023/04/08 00:51:47;;;;;;;;;;;;;;;18.49;52.49;98416.41;2085349;28;19929;-54
2023/04/08 00:52:47;;;;;;;;;;;;;;;18.48;52.56;98425.50;2085595;28;19979;-50
2023/04/08 00:53:49;;;;;;;;;;;;;;;18.49;52.58;98419.09;2080144;28;20911;-55
2023/04/08 00:54:49;;;;;;;;;;;;;;;18.48;52.24;98436.25;2081823;28;19941;-54
2023/04/08 00:55:51;;;;;;;;;;;;;;;18.47;52.43;98428.38;2079302;28;19928;-55
2023/04/08 00:56:51;;;;;;;;;;;;;;;18.47;52.51;98436.44;2084903;28;19950;-53
2023/04/08 00:57:53;;;;;;;;;;;;;;;18.48;52.53;98438.13;2083444;28;20315;-55
2023/04/08 00:58:54;;;;;;;;;;;;;;;18.46;52.60;98440.19;2083591;28;19978;-54
2023/04/08 00:59:55;;;;;;;;;;;;;;;18.46;52.31;98437.50;2086228;28;20420;-54
2023/04/08 01:00:59;;;;;;;;;;;;;;;18.46;52.40;98442.88;2084800;28;19970;-54
2023/04/08 01:02:07;;;;;;;;;;;;;;;18.44;52.59;98440.41;2080534;28;19932;-51
2023/04/08 01:03:13;;;;;;;;;;;;;;;18.43;52.56;98441.41;2081613;28;19932;-52
2023/04/08 01:04:21;;;;;;;;;;;;;;;18.43;52.29;98446.78;2079536;28;19925;-54
2023/04/08 01:05:27;;;;;;;;;;;;;;;18.43;52.39;98445.97;2084644;28;19929;-54
2023/04/08 01:06:32;;;;;;;;;;;;;;;18.42;52.27;98431.72;2083696;28;19924;-55
2023/04/08 01:07:34;;;;;;;;;;;;;;;18.42;52.33;98439.78;2082983;28;20033;-53
2023/04/08 01:08:38;;;;;;;;;;;;;;;18.42;52.35;98439.78;2080494;28;19935;-53
2023/04/08 01:09:40;;;;;;;;;;;;;;;18.40;52.60;98441.84;2084245;28;19928;-53
2023/04/08 01:10:43;;;;;;;;;;;;;;;18.39;52.69;98440.19;2084348;28;19929;-50
2023/04/08 01:11:45;;;;;;;;;;;;;;;18.39;52.43;98440.19;2083861;28;19928;-54
2023/04/08 01:12:49;;;;;;;;;;;;;;;18.39;52.56;98442.06;2089172;28;19929;-53
2023/04/08 01:13:53;;;;;;;;;;;;;;;18.39;52.59;98442.06;2085974;28;19924;-55
2023/04/08 01:14:56;;;;;;;;;;;;;;;18.38;52.51;98443.88;2088645;28;19925;-53
2023/04/08 01:15:58;;;;;;;;;;;;;;;18.37;52.46;98438.75;2086781;28;20468;-55
2023/04/08 01:17:00;;;;;;;;;;;;;;;18.37;52.56;98442.25;2087076;28;19925;-54
2023/04/08 01:18:04;;;;;;;;;;;;;;;18.36;52.53;98437.91;2084023;28;19929;-52
2023/04/08 01:19:08;;;;;;;;;;;;;;;18.36;52.73;98435.25;2085304;28;20310;-54
2023/04/08 01:20:09;;;;;;;;;;;;;;;18.34;52.49;98439.16;2086697;28;20741;-51
2023/04/08 01:21:11;;;;;;;;;;;;;;;18.34;52.56;98439.97;2078403;28;20782;-54
2023/04/08 01:22:18;;;;;;;;;;;;;;;18.34;52.72;98441.84;2079796;28;19967;-54
2023/04/08 01:23:22;;;;;;;;;;;;;;;18.33;52.54;98435.66;2083412;28;20386;-55
2023/04/08 01:24:27;;;;;;;;;;;;;;;18.33;52.56;98434.81;2083833;28;19924;-55
2023/04/08 01:25:30;;;;;;;;;;;;;;;18.32;52.71;98444.72;2083015;28;20686;-52
2023/04/08 01:26:32;;;;;;;;;;;;;;;18.33;52.65;98441.03;2078015;28;19933;-53
2023/04/08 01:27:35;;;;;;;;;;;;;;;18.32;52.70;98442.03;2080426;28;20054;-55
2023/04/08 01:28:36;;;;;;;;;;;;;;;18.31;52.76;98441.22;2081470;28;19932;-55
2023/04/08 01:29:39;;;;;;;;;;;;;;;18.31;52.61;98435.03;2081002;28;20835;-55
2023/04/08 01:30:40;;;;;;;;;;;;;;;18.30;52.54;98434.19;2082596;28;19933;-53
2023/04/08 01:31:42;;;;;;;;;;;;;;;18.30;52.42;98438.72;2084392;28;19932;-55
2023/04/08 01:32:43;;;;;;;;;;;;;;;18.27;52.43;98431.09;2084999;28;19954;-55
2023/04/08 01:33:45;;;;;;;;;;;;;;;18.29;52.75;98434.41;2086511;28;19998;-53
2023/04/08 01:34:46;;;;;;;;;;;;;;;18.29;52.66;98434.41;2087117;28;20425;-55
2023/04/08 01:35:48;;;;;;;;;;;;;;;18.27;52.61;98436.44;2088086;28;19978;-52
2023/04/08 01:36:49;;;;;;;;;;;;;;;18.26;52.82;98432.13;2082044;28;19933;-55
2023/04/08 01:37:51;;;;;;;;;;;;;;;18.28;52.68;98438.94;2084371;28;20267;-53
2023/04/08 01:38:52;;;;;;;;;;;;;;;18.26;52.63;98424.06;2081544;28;19954;-55
2023/04/08 01:39:54;;;;;;;;;;;;;;;18.25;52.71;98425.94;2080449;28;19928;-51
2023/04/08 01:40:54;;;;;;;;;;;;;;;18.23;52.88;98428.00;2079759;28;20326;-54
2023/04/08 01:41:59;;;;;;;;;;;;;;;18.23;52.52;98430.69;2085207;28;19929;-54
2023/04/08 01:43:00;;;;;;;;;;;;;;;18.24;52.70;98435.00;2083859;28;19932;-55
2023/04/08 01:44:02;;;;;;;;;;;;;;;18.24;52.84;98436.88;2086461;28;19933;-55
2023/04/08 01:45:02;;;;;;;;;;;;;;;18.22;52.62;98436.25;2086549;28;19925;-54
2023/04/08 01:46:05;;;;;;;;;;;;;;;18.23;52.56;98441.41;2084623;28;19995;-53
2023/04/08 01:47:06;;;;;;;;;;;;;;;18.21;52.89;98437.28;2083978;28;19928;-55
2023/04/08 01:48:08;;;;;;;;;;;;;;;18.21;52.58;98431.91;2084993;28;19929;-55
2023/04/08 01:49:10;;;;;;;;;;;;;;;18.21;52.72;98445.34;2086074;28;20853;-56
2023/04/08 01:50:12;;;;;;;;;;;;;;;18.21;52.53;98434.59;2086036;28;20547;-54
2023/04/08 01:51:13;;;;;;;;;;;;;;;18.21;52.62;98438.09;2083534;28;19941;-54
2023/04/08 01:52:15;;;;;;;;;;;;;;;18.19;52.86;98432.13;2081397;28;19929;-57
2023/04/08 01:53:16;;;;;;;;;;;;;;;18.19;52.88;98439.34;2083124;28;20299;-56
2023/04/08 01:54:17;;;;;;;;;;;;;;;18.20;52.78;98435.63;2079709;28;19929;-53
2023/04/08 01:55:18;;;;;;;;;;;;;;;18.19;52.86;98440.19;2083795;28;19981;-52
2023/04/08 01:56:22;;;;;;;;;;;;;;;18.18;52.62;98432.31;2083299;28;19991;-57
2023/04/08 01:57:26;;;;;;;;;;;;;;;18.18;52.60;98437.69;2080465;28;19977;-58
2023/04/08 01:58:31;;;;;;;;;;;;;;;18.18;52.92;98440.38;2079081;28;19999;-59
2023/04/08 01:59:34;;;;;;;;;;;;;;;18.17;52.73;98439.56;2080487;28;19929;-55
2023/04/08 02:00:36;;;;;;;;;;;;;;;18.16;52.58;98439.75;2081118;28;19929;-53
2023/04/08 02:01:37;;;;;;;;;;;;;;;18.16;52.75;98439.75;2080461;28;19933;-59
2023/04/08 02:02:41;;;;;;;;;;;;;;;18.16;52.82;98434.38;2084322;28;19932;-58
2023/04/08 02:03:42;;;;;;;;;;;;;;;18.14;52.81;98434.59;2081668;28;19925;-53
2023/04/08 02:04:43;;;;;;;;;;;;;;;18.14;52.69;98437.28;2086145;28;20023;-54
2023/04/08 02:05:44;;;;;;;;;;;;;;;18.14;52.64;98431.09;2081790;28;20619;-48
2023/04/08 02:06:46;;;;;;;;;;;;;;;18.13;52.92;98432.13;2085042;28;19937;-54
2023/04/08 02:07:46;;;;;;;;;;;;;;;18.12;52.82;98430.47;2081544;27;19935;-56
2023/04/08 02:08:48;;;;;;;;;;;;;;;18.12;52.63;98427.78;2084516;28;19969;-53
2023/04/08 02:09:49;;;;;;;;;;;;;;;18.13;52.60;98430.25;2087408;28;19928;-55
2023/04/08 02:10:50;;;;;;;;;;;;;;;18.11;52.54;98426.97;2085566;28;19974;-52
2023/04/08 02:11:51;;;;;;;;;;;;;;;18.12;52.80;98427.78;2086266;28;20451;-55
2023/04/08 02:12:54;;;;;;;;;;;;;;;18.12;52.64;98428.59;2084190;28;19932;-52
2023/04/08 02:13:54;;;;;;;;;;;;;;;18.12;52.61;98433.16;2086895;28;20261;-55
2023/04/08 02:14:57;;;;;;;;;;;;;;;18.09;52.80;98429.84;2087290;28;19935;-53
2023/04/08 02:16:02;;;;;;;;;;;;;;;18.09;52.87;98426.34;2085115;28;19932;-49
2023/04/08 02:17:09;;;;;;;;;;;;;;;18.09;52.84;98432.53;2085693;28;19947;-56
2023/04/08 02:18:12;;;;;;;;;;;;;;;18.10;52.79;98430.66;2081565;28;19939;-56
2023/04/08 02:19:15;;;;;;;;;;;;;;;18.11;52.62;98426.13;2084852;28;19933;-51
2023/04/08 02:20:17;;;;;;;;;;;;;;;18.07;52.65;98428.41;2085488;28;19924;-55
2023/04/08 02:21:22;;;;;;;;;;;;;;;18.07;52.81;98421.16;2079410;28;20370;-48
2023/04/08 02:22:36;;;;;;;;;;;;;;;18.06;52.81;98424.06;2085901;28;19982;-51
2023/04/08 02:23:39;;;;;;;;;;;;;;;18.04;53.01;98424.25;2080638;28;20011;-55
2023/04/08 02:24:40;;;;;;;;;;;;;;;18.04;52.81;98420.75;2086664;28;20019;-54
2023/04/08 02:25:44;;;;;;;;;;;;;;;18.05;52.65;98422.41;2088081;28;19925;-55
2023/04/08 02:26:46;;;;;;;;;;;;;;;18.05;52.83;98417.03;2085759;28;19929;-51
2023/04/08 02:27:48;;;;;;;;;;;;;;;18.06;52.92;98430.25;2086402;28;20387;-55
2023/04/08 02:28:51;;;;;;;;;;;;;;;18.03;52.86;98422.63;2084807;28;19932;-54
2023/04/08 02:29:55;;;;;;;;;;;;;;;18.03;52.82;98425.31;2081936;28;20422;-59
2023/04/08 02:30:56;;;;;;;;;;;;;;;18.03;52.88;98427.97;2083509;28;19924;-59
2023/04/08 02:31:58;;;;;;;;;;;;;;;18.03;52.74;98427.16;2090029;28;19982;-50
2023/04/08 02:33:00;;;;;;;;;;;;;;;18.02;52.80;98423.63;2084469;28;19925;-51
2023/04/08 02:34:01;;;;;;;;;;;;;;;18.01;52.78;98431.91;2084564;28;19975;-58
2023/04/08 02:35:03;;;;;;;;;;;;;;;18.01;52.93;98432.72;2086398;28;20309;-53
2023/04/08 02:36:05;;;;;;;;;;;;;;;17.98;52.95;98438.50;2085248;28;20051;-52
2023/04/08 02:37:06;;;;;;;;;;;;;;;18.00;52.84;98433.75;2085588;28;19924;-59
2023/04/08 02:38:08;;;;;;;;;;;;;;;17.99;52.78;98433.94;2085238;28;19925;-53
2023/04/08 02:39:09;;;;;;;;;;;;;;;18.01;52.93;98434.59;2084986;28;19928;-53
2023/04/08 02:40:24;;;;;;;;;;;;;;;17.99;52.73;98429.41;2085666;28;19932;-54
2023/04/08 02:41:27;;;;;;;;;;;;;;;18.02;52.69;98433.53;2084100;28;20592;-52
2023/04/08 02:42:28;;;;;;;;;;;;;;;18.00;52.83;98431.06;2078078;28;19964;-51
2023/04/08 02:43:31;;;;;;;;;;;;;;;17.99;52.58;98439.31;2077386;28;19932;-59
2023/04/08 02:44:33;;;;;;;;;;;;;;;17.99;52.79;98429.41;2083461;28;19960;-55
2023/04/08 02:45:38;;;;;;;;;;;;;;;17.99;52.89;98440.13;2082737;28;20315;-55
2023/04/08 02:46:39;;;;;;;;;;;;;;;17.97;52.92;98441.38;2087008;28;19931;-49
2023/04/08 02:47:40;;;;;;;;;;;;;;;17.98;52.72;98432.31;2081266;28;19928;-55
2023/04/08 02:48:41;;;;;;;;;;;;;;;17.97;52.72;98441.38;2082813;28;19936;-57
2023/04/08 02:49:42;;;;;;;;;;;;;;;17.95;52.75;98438.91;2085227;28;19955;-55
2023/04/08 02:50:43;;;;;;;;;;;;;;;17.95;52.77;98432.72;2082383;28;19929;-50
2023/04/08 02:51:44;;;;;;;;;;;;;;;17.97;52.81;98446.75;2085196;28;20560;-51
2023/04/08 02:52:45;;;;;;;;;;;;;;;17.94;52.93;98442.63;2088341;28;19929;-48
2023/04/08 02:53:46;;;;;;;;;;;;;;;17.92;52.69;98443.88;2087880;28;19929;-57
2023/04/08 02:54:47;;;;;;;;;;;;;;;17.92;52.93;98436.63;2086519;28;19925;-54
2023/04/08 02:55:48;;;;;;;;;;;;;;;17.95;52.80;98438.09;2086639;28;20020;-51
2023/04/08 02:56:49;;;;;;;;;;;;;;;17.92;53.06;98443.88;2087196;28;20502;-48
2023/04/08 02:57:50;;;;;;;;;;;;;;;17.93;53.04;98438.28;2087143;28;20399;-56
2023/04/08 02:58:51;;;;;;;;;;;;;;;17.93;52.80;98440.13;2087160;28;19924;-58
2023/04/08 02:59:53;;;;;;;;;;;;;;;17.92;53.00;98442.00;2080687;28;20648;-55
2023/04/08 03:00:55;;;;;;;;;;;;;;;17.92;52.78;98438.50;2081495;28;19935;-54
2023/04/08 03:01:55;;;;;;;;;;;;;;;17.91;52.69;98443.00;2086264;28;19957;-51
2023/04/08 03:02:56;;;;;;;;;;;;;;;17.90;53.04;98440.56;2082395;28;19925;-52
2023/04/08 03:03:57;;;;;;;;;;;;;;;17.89;53.05;98437.06;2082402;28;19974;-55
2023/04/08 03:04:58;;;;;;;;;;;;;;;17.89;52.91;98439.72;2084879;28;19998;-56
2023/04/08 03:05:59;;;;;;;;;;;;;;;17.90;52.87;98444.06;2080625;28;19932;-56
2023/04/08 03:07:00;;;;;;;;;;;;;;;17.88;52.88;98443.44;2081936;28;19932;-58
2023/04/08 03:08:01;;;;;;;;;;;;;;;17.88;52.84;98446.09;2081337;28;19933;-57
2023/04/08 03:09:02;;;;;;;;;;;;;;;17.88;52.82;98450.66;2083917;28;20361;-52
2023/04/08 03:10:03;;;;;;;;;;;;;;;17.87;52.85;98447.16;2083482;28;19933;-56
2023/04/08 03:11:05;;;;;;;;;;;;;;;17.88;52.90;98454.16;2082045;28;20068;-59
2023/04/08 03:12:05;;;;;;;;;;;;;;;17.87;52.92;98452.50;2086030;28;20477;-53
2023/04/08 03:13:07;;;;;;;;;;;;;;;17.86;52.88;98446.34;2087028;28;19936;-57
2023/04/08 03:14:07;;;;;;;;;;;;;;;17.85;52.93;98452.69;2086344;28;19959;-49
2023/04/08 03:15:10;;;;;;;;;;;;;;;17.84;52.73;98453.75;2087353;28;19933;-56
2023/04/08 03:16:11;;;;;;;;;;;;;;;17.85;52.82;98454.56;2084995;28;19936;-55
2023/04/08 03:17:13;;;;;;;;;;;;;;;17.87;52.90;98452.50;2080728;28;20019;-51
2023/04/08 03:18:13;;;;;;;;;;;;;;;17.85;52.89;98454.56;2084028;28;19926;-54
2023/04/08 03:19:15;;;;;;;;;;;;;;;17.84;52.79;98448.38;2086627;28;19929;-57
2023/04/08 03:20:15;;;;;;;;;;;;;;;17.84;52.79;98456.44;2088395;28;19986;-54
2023/04/08 03:21:17;;;;;;;;;;;;;;;17.83;53.02;98448.59;2087889;28;19928;-58
2023/04/08 03:22:17;;;;;;;;;;;;;;;17.84;52.88;98455.59;2090040;28;19933;-54
2023/04/08 03:23:19;;;;;;;;;;;;;;;17.83;52.94;98453.97;2088216;28;19928;-53
2023/04/08 03:24:19;;;;;;;;;;;;;;;17.82;52.78;98454.97;2088179;28;19986;-52
2023/04/08 03:25:21;;;;;;;;;;;;;;;17.83;52.97;98453.97;2088017;28;20942;-51
2023/04/08 03:26:21;;;;;;;;;;;;;;;17.81;52.87;98450.66;2087821;28;19932;-50
2023/04/08 03:27:23;;;;;;;;;;;;;;;17.81;52.84;98454.16;2080553;28;19998;-55
2023/04/08 03:28:23;;;;;;;;;;;;;;;17.82;52.86;98454.97;2080039;28;19995;-52
2023/04/08 03:29:25;;;;;;;;;;;;;;;17.80;52.99;98457.03;2082179;28;20721;-52
2023/04/08 03:30:26;;;;;;;;;;;;;;;17.78;53.01;98445.66;2082318;28;19925;-54
2023/04/08 03:31:28;;;;;;;;;;;;;;;17.78;52.85;98445.66;2079377;28;20367;-57
2023/04/08 03:32:28;;;;;;;;;;;;;;;17.80;52.92;98448.97;2085276;28;19985;-49
2023/04/08 03:33:30;;;;;;;;;;;;;;;17.79;52.80;98450.03;2083013;28;20014;-59
2023/04/08 03:34:30;;;;;;;;;;;;;;;17.78;52.93;98453.72;2081716;28;20007;-57
2023/04/08 03:35:32;;;;;;;;;;;;;;;17.78;53.09;98451.03;2083160;28;19932;-57
2023/04/08 03:36:33;;;;;;;;;;;;;;;17.79;52.84;98450.03;2082920;28;20583;-48
2023/04/08 03:37:34;;;;;;;;;;;;;;;17.79;52.75;98455.38;2085046;28;19971;-59
2023/04/08 03:38:35;;;;;;;;;;;;;;;17.77;52.74;98452.84;2090044;28;22122;-50
2023/04/08 03:39:36;;;;;;;;;;;;;;;17.77;52.93;98449.34;2081361;28;19981;-56
2023/04/08 03:40:37;;;;;;;;;;;;;;;17.77;52.99;98455.53;2078795;28;20025;-56
2023/04/08 03:41:38;;;;;;;;;;;;;;;17.77;52.81;98449.34;2082914;28;19924;-55
2023/04/08 03:42:39;;;;;;;;;;;;;;;17.76;52.98;98451.22;2087741;28;19933;-54
2023/04/08 03:43:39;;;;;;;;;;;;;;;17.77;52.90;98458.22;2086792;28;20711;-59
2023/04/08 03:44:41;;;;;;;;;;;;;;;17.73;52.95;98448.94;2087087;28;19932;-57
2023/04/08 03:45:43;;;;;;;;;;;;;;;17.73;52.89;98450.81;2079346;28;20706;-56
2023/04/08 03:46:44;;;;;;;;;;;;;;;17.74;52.78;98460.50;2080146;28;20021;-53
2023/04/08 03:47:45;;;;;;;;;;;;;;;17.71;52.86;98464.41;2081012;28;19978;-57
2023/04/08 03:48:46;;;;;;;;;;;;;;;17.71;52.98;98463.59;2084048;28;20345;-51
2023/04/08 03:49:46;;;;;;;;;;;;;;;17.72;53.10;98459.84;2087452;28;19928;-56
2023/04/08 03:50:48;;;;;;;;;;;;;;;17.73;53.13;98466.91;2084807;28;19928;-55
2023/04/08 03:51:49;;;;;;;;;;;;;;;17.71;53.20;98466.25;2088295;28;19993;-49
2023/04/08 03:52:50;;;;;;;;;;;;;;;17.71;52.88;98466.25;2087005;28;19928;-53
2023/04/08 03:53:50;;;;;;;;;;;;;;;17.70;52.83;98461.94;2087053;28;19936;-51
2023/04/08 03:54:52;;;;;;;;;;;;;;;17.70;53.03;98461.94;2086584;28;19933;-53
2023/04/08 03:55:52;;;;;;;;;;;;;;;17.72;52.94;98470.59;2081174;28;20358;-56
2023/04/08 03:56:54;;;;;;;;;;;;;;;17.70;52.99;98467.31;2084403;28;19924;-55
2023/04/08 03:57:55;;;;;;;;;;;;;;;17.71;52.79;98468.94;2082724;28;20080;-54
2023/04/08 03:58:56;;;;;;;;;;;;;;;17.71;52.94;98466.25;2084551;28;19990;-51
2023/04/08 03:59:57;;;;;;;;;;;;;;;17.70;52.97;98472.66;2084106;28;19925;-55
2023/04/08 04:01:00;;;;;;;;;;;;;;;17.68;53.01;98470.16;2082266;28;20595;-52
2023/04/08 04:02:00;;;;;;;;;;;;;;;17.70;53.02;98473.50;2086589;28;19969;-56
2023/04/08 04:03:02;;;;;;;;;;;;;;;17.69;53.04;98465.63;2089104;28;19929;-59
2023/04/08 04:04:03;;;;;;;;;;;;;;;17.69;52.89;98466.47;2086763;28;20074;-49
2023/04/08 04:05:05;;;;;;;;;;;;;;;17.67;52.90;98459.66;2086746;28;19966;-55
2023/04/08 04:06:05;;;;;;;;;;;;;;;17.67;52.90;98465.84;2086086;28;19929;-54
2023/04/08 04:07:07;;;;;;;;;;;;;;;17.67;52.90;98467.72;2080890;28;20279;-55
2023/04/08 04:08:08;;;;;;;;;;;;;;;17.68;52.84;98469.34;2079716;28;19932;-55
2023/04/08 04:09:10;;;;;;;;;;;;;;;17.67;52.97;98473.91;2086900;28;19971;-53
2023/04/08 04:10:10;;;;;;;;;;;;;;;17.67;53.02;98475.75;2085117;28;20012;-53
2023/04/08 04:11:12;;;;;;;;;;;;;;;17.65;52.92;98470.59;2085590;28;19933;-58
2023/04/08 04:12:13;;;;;;;;;;;;;;;17.62;53.13;98471.81;2084009;28;20466;-52
2023/04/08 04:13:14;;;;;;;;;;;;;;;17.64;52.91;98469.75;2085192;28;19932;-56
2023/04/08 04:14:15;;;;;;;;;;;;;;;17.64;52.97;98467.06;2084481;28;19932;-55
2023/04/08 04:15:17;;;;;;;;;;;;;;;17.65;52.81;98478.63;2081853;28;19928;-55
2023/04/08 04:16:18;;;;;;;;;;;;;;;17.63;53.19;98478.84;2086296;28;19935;-59
2023/04/08 04:17:20;;;;;;;;;;;;;;;17.63;52.99;98468.13;2086137;28;19993;-54
2023/04/08 04:18:20;;;;;;;;;;;;;;;17.63;53.00;98467.25;2087221;28;19929;-48
2023/04/08 04:19:22;;;;;;;;;;;;;;;17.63;52.84;98469.94;2085435;28;19982;-58
2023/04/08 04:20:24;;;;;;;;;;;;;;;17.62;53.16;98471.81;2086511;28;19972;-51
2023/04/08 04:21:26;;;;;;;;;;;;;;;17.62;53.06;98470.97;2087481;28;19934;-57
2023/04/08 04:22:26;;;;;;;;;;;;;;;17.61;52.88;98470.16;2086532;28;19932;-50
2023/04/08 04:23:28;;;;;;;;;;;;;;;17.60;52.97;98476.53;2086215;28;20488;-53
2023/04/08 04:24:28;;;;;;;;;;;;;;;17.60;53.04;98475.72;2085763;28;19932;-54
2023/04/08 04:25:30;;;;;;;;;;;;;;;17.60;52.99;98473.03;2080127;27;19928;-55
2023/04/08 04:26:30;;;;;;;;;;;;;;;17.60;53.08;98476.53;2083986;28;19977;-55
2023/04/08 04:27:32;;;;;;;;;;;;;;;17.59;53.05;98474.88;2085869;28;20556;-55
2023/04/08 04:28:32;;;;;;;;;;;;;;;17.59;53.13;98482.94;2088337;28;19986;-54
2023/04/08 04:29:34;;;;;;;;;;;;;;;17.58;53.01;98475.94;2085098;28;19928;-51
2023/04/08 04:30:35;;;;;;;;;;;;;;;17.59;52.90;98480.25;2086896;28;19981;-53
2023/04/08 04:31:38;;;;;;;;;;;;;;;17.59;53.03;98490.97;2085810;28;19928;-55
2023/04/08 04:32:39;;;;;;;;;;;;;;;17.60;52.94;98481.91;2085824;28;19993;-52
2023/04/08 04:33:43;;;;;;;;;;;;;;;17.59;53.01;98477.56;2086230;28;19982;-55
2023/04/08 04:34:44;;;;;;;;;;;;;;;17.58;52.98;98486.66;2084292;28;19928;-51
2023/04/08 04:35:45;;;;;;;;;;;;;;;17.58;52.98;98489.34;2086331;28;19929;-53
2023/04/08 04:36:46;;;;;;;;;;;;;;;17.57;52.93;98490.34;2084986;28;19959;-53
2023/04/08 04:37:49;;;;;;;;;;;;;;;17.58;53.09;98485.84;2085607;28;19986;-56
2023/04/08 04:38:49;;;;;;;;;;;;;;;17.55;52.99;98487.06;2087402;28;20019;-54
2023/04/08 04:39:51;;;;;;;;;;;;;;;17.54;53.00;98490.75;2085466;28;20379;-52
2023/04/08 04:40:51;;;;;;;;;;;;;;;17.52;53.09;98486.63;2086594;28;19928;-51
2023/04/08 04:41:53;;;;;;;;;;;;;;;17.54;52.94;98487.25;2085361;28;19986;-55
2023/04/08 04:42:53;;;;;;;;;;;;;;;17.52;53.21;98484.75;2083798;28;19925;-54
2023/04/08 04:43:54;;;;;;;;;;;;;;;17.53;53.10;98494.47;2075778;28;19929;-52
2023/04/08 04:44:55;;;;;;;;;;;;;;;17.52;52.95;98492.78;2079476;28;19978;-54
2023/04/08 04:45:58;;;;;;;;;;;;;;;17.51;53.14;98491.16;2085080;28;19928;-53
2023/04/08 04:47:00;;;;;;;;;;;;;;;17.51;53.08;98493.84;2079858;28;20027;-55
2023/04/08 04:48:02;;;;;;;;;;;;;;;17.50;53.10;98489.50;2083421;28;20604;-53
2023/04/08 04:49:02;;;;;;;;;;;;;;;17.51;53.09;98504.56;2082925;28;19951;-56
2023/04/08 04:50:04;;;;;;;;;;;;;;;17.51;53.15;98493.84;2084824;28;19929;-52
2023/04/08 04:51:06;;;;;;;;;;;;;;;17.48;53.06;98496.91;2085846;28;19969;-55
2023/04/08 04:52:07;;;;;;;;;;;;;;;17.47;53.15;98495.28;2086474;28;20138;-53
2023/04/08 04:53:08;;;;;;;;;;;;;;;17.47;53.08;98502.47;2084727;28;19928;-53
2023/04/08 04:54:09;;;;;;;;;;;;;;;17.46;53.20;98501.66;2080755;28;19928;-53
2023/04/08 04:55:10;;;;;;;;;;;;;;;17.46;53.24;98496.28;2076375;28;21090;-51
2023/04/08 04:56:11;;;;;;;;;;;;;;;17.45;53.22;98502.69;2083613;28;19958;-51
2023/04/08 04:57:11;;;;;;;;;;;;;;;17.45;53.14;98505.38;2083959;28;20556;-54
2023/04/08 04:58:13;;;;;;;;;;;;;;;17.46;53.18;98498.16;2087146;28;19928;-52
2023/04/08 04:59:13;;;;;;;;;;;;;;;17.45;53.06;98507.22;2080070;28;19929;-54
2023/04/08 05:00:15;;;;;;;;;;;;;;;17.45;53.03;98501.88;2080006;28;20054;-51
2023/04/08 05:01:16;;;;;;;;;;;;;;;17.46;53.33;98507.00;2083999;28;19928;-53
2023/04/08 05:02:19;;;;;;;;;;;;;;;17.46;53.27;98500.81;2082619;28;19931;-55
2023/04/08 05:03:20;;;;;;;;;;;;;;;17.45;53.21;98507.22;2082523;28;19929;-51
2023/04/08 05:04:21;;;;;;;;;;;;;;;17.43;53.29;98505.56;2083437;28;19940;-53
2023/04/08 05:05:22;;;;;;;;;;;;;;;17.42;53.25;98508.44;2082954;28;20767;-52
2023/04/08 05:06:23;;;;;;;;;;;;;;;17.41;53.17;98506.78;2086231;28;20011;-51
2023/04/08 05:07:24;;;;;;;;;;;;;;;17.41;53.32;98506.78;2085711;28;19929;-56
2023/04/08 05:08:25;;;;;;;;;;;;;;;17.40;53.10;98507.81;2084816;28;20575;-52
2023/04/08 05:09:26;;;;;;;;;;;;;;;17.39;53.23;98509.66;2085036;28;19986;-55
2023/04/08 05:10:27;;;;;;;;;;;;;;;17.39;53.31;98511.53;2084806;28;20081;-54
2023/04/08 05:11:28;;;;;;;;;;;;;;;17.39;53.18;98511.53;2083103;28;20013;-54
2023/04/08 05:12:29;;;;;;;;;;;;;;;17.39;53.22;98520.41;2083805;28;20025;-53
2023/04/08 05:13:31;;;;;;;;;;;;;;;17.39;53.19;98509.66;2085890;28;19928;-53
2023/04/08 05:14:33;;;;;;;;;;;;;;;17.39;53.26;98514.22;2075578;28;19952;-53
2023/04/08 05:15:33;;;;;;;;;;;;;;;17.39;53.24;98515.03;2084080;28;20321;-55
2023/04/08 05:16:35;;;;;;;;;;;;;;;17.39;53.23;98517.72;2083415;28;19999;-55
2023/04/08 05:17:37;;;;;;;;;;;;;;;17.39;53.24;98512.34;2080261;28;19940;-55
2023/04/08 05:18:38;;;;;;;;;;;;;;;17.44;53.12;98506.41;2080113;28;19951;-51
2023/04/08 05:19:39;;;;;;;;;;;;;;;17.46;53.07;98507.00;2080440;28;20330;-51
2023/04/08 05:20:41;;;;;;;;;;;;;;;17.48;53.08;98501.47;2080493;28;19925;-52
2023/04/08 05:21:42;;;;;;;;;;;;;;;17.50;52.93;98505.59;2082341;28;19932;-51